Time;durP1;ratioP1;P1;durP2;ratioP2;P2;SDS_P1;SDS_P2;PMS_P1;PMS_P2;Temp;Humidity;BMP_temperature;BMP_pressure;BME280_temperature;BME280_humidity;BME280_pressure;Samples;Min_cycle;Max_cycle;Signal;HPM_P1;HPM_P2
2023/08/01 00:00:28;;;;;;;;;;;16.30;99.90;;;;;;5088210;28;19935;-85
2023/08/01 00:02:53;;;;;;;;;;;16.40;99.90;;;;;;5092461;28;19924;-84
2023/08/01 00:05:19;;;;;;;;;;;16.30;99.90;;;;;;5037516;28;19931;-85
2023/08/01 00:07:44;;;;;;;;;;;16.30;99.90;;;;;;5083315;28;19967;-85
2023/08/01 00:10:10;;;;;;;;;;;16.40;99.90;;;;;;5086464;28;19949;-84
2023/08/01 00:12:36;;;;;;;;;;;16.30;99.90;;;;;;5061013;28;20371;-86
2023/08/01 00:15:02;;;;;;;;;;;16.30;99.90;;;;;;5087032;28;19955;-85
2023/08/01 00:17:27;;;;;;;;;;;16.30;99.90;;;;;;5058912;28;19963;-85
2023/08/01 00:19:54;;;;;;;;;;;16.30;99.90;;;;;;5066301;28;20362;-86
2023/08/01 00:22:20;;;;;;;;;;;16.30;99.90;;;;;;5067710;28;19935;-86
2023/08/01 00:24:47;;;;;;;;;;;16.30;99.90;;;;;;5087091;28;20298;-85
2023/08/01 00:27:13;;;;;;;;;;;16.30;99.90;;;;;;5066688;28;20302;-85
2023/08/01 00:29:38;;;;;;;;;;;16.30;99.90;;;;;;5085054;28;19967;-85
2023/08/01 00:32:04;;;;;;;;;;;16.30;99.90;;;;;;5084388;28;20019;-85
2023/08/01 00:34:30;;;;;;;;;;;16.30;99.90;;;;;;5063151;28;19936;-86
2023/08/01 00:36:56;;;;;;;;;;;16.30;99.90;;;;;;5083288;28;19928;-85
2023/08/01 00:39:21;;;;;;;;;;;16.30;99.90;;;;;;5080083;28;19974;-86
2023/08/01 00:41:47;;;;;;;;;;;16.20;99.90;;;;;;5066266;28;20290;-86
2023/08/01 00:44:13;;;;;;;;;;;16.30;99.90;;;;;;5084904;28;20015;-85
2023/08/01 00:46:38;;;;;;;;;;;16.30;99.90;;;;;;5059204;28;20726;-85
2023/08/01 00:49:04;;;;;;;;;;;16.20;99.90;;;;;;5083444;28;20026;-85
2023/08/01 00:51:31;;;;;;;;;;;16.20;99.90;;;;;;5084847;28;20035;-85
2023/08/01 00:53:57;;;;;;;;;;;16.20;99.90;;;;;;5083124;28;19929;-85
2023/08/01 00:56:23;;;;;;;;;;;16.10;99.90;;;;;;5086136;28;19935;-85
2023/08/01 00:58:48;;;;;;;;;;;16.10;99.90;;;;;;5083822;28;20671;-84
2023/08/01 01:01:14;;;;;;;;;;;16.20;99.90;;;;;;5090694;28;19928;-84
2023/08/01 01:03:39;;;;;;;;;;;16.10;99.90;;;;;;5086911;28;20443;-85
2023/08/01 01:06:08;;;;;;;;;;;16.10;99.90;;;;;;5086470;28;19981;-85
2023/08/01 01:08:33;;;;;;;;;;;16.10;99.90;;;;;;5062441;28;19936;-85
2023/08/01 01:10:59;;;;;;;;;;;16.10;99.90;;;;;;5084129;28;19928;-86
2023/08/01 01:13:24;;;;;;;;;;;16.10;99.90;;;;;;5085016;28;19928;-85
2023/08/01 01:15:50;;;;;;;;;;;16.00;99.90;;;;;;5051749;28;19924;-86
2023/08/01 01:18:16;;;;;;;;;;;16.00;99.90;;;;;;5086039;28;19924;-85
2023/08/01 01:20:41;;;;;;;;;;;16.10;99.90;;;;;;5083228;28;19932;-85
2023/08/01 01:23:08;;;;;;;;;;;16.00;99.90;;;;;;5086216;28;20291;-85
2023/08/01 01:25:34;;;;;;;;;;;16.00;99.90;;;;;;5084796;28;19975;-86
2023/08/01 01:28:01;;;;;;;;;;;16.00;99.90;;;;;;5089017;28;19932;-86
2023/08/01 01:30:27;;;;;;;;;;;16.00;99.90;;;;;;5072752;28;19928;-85
2023/08/01 01:32:53;;;;;;;;;;;16.00;99.90;;;;;;5088910;28;19930;-85
2023/08/01 01:35:18;;;;;;;;;;;16.00;99.90;;;;;;5089338;28;19983;-85
2023/08/01 01:37:44;;;;;;;;;;;16.00;99.90;;;;;;5086358;28;19971;-85
2023/08/01 01:40:10;;;;;;;;;;;15.90;99.90;;;;;;5086887;28;19931;-85
2023/08/01 01:42:36;;;;;;;;;;;15.90;99.90;;;;;;5065971;28;19974;-85
2023/08/01 01:45:01;;;;;;;;;;;15.90;99.90;;;;;;5064186;28;19943;-84
2023/08/01 01:47:27;;;;;;;;;;;15.90;99.90;;;;;;5047957;28;19940;-87
2023/08/01 01:49:52;;;;;;;;;;;15.80;99.90;;;;;;5082092;28;20783;-86
2023/08/01 01:52:18;;;;;;;;;;;15.80;99.90;;;;;;5069475;28;19931;-85
2023/08/01 01:54:43;;;;;;;;;;;15.80;99.90;;;;;;5063870;28;19939;-86
2023/08/01 01:57:09;;;;;;;;;;;15.70;99.90;;;;;;5084618;28;19989;-86
2023/08/01 01:59:35;;;;;;;;;;;15.70;99.90;;;;;;5050333;28;19928;-85
2023/08/01 02:02:03;;;;;;;;;;;15.70;99.90;;;;;;5089432;28;20412;-84
2023/08/01 02:04:29;;;;;;;;;;;15.60;99.90;;;;;;5075257;28;19932;-84
2023/08/01 02:06:55;;;;;;;;;;;15.50;99.90;;;;;;5093956;28;19946;-86
2023/08/01 02:09:20;;;;;;;;;;;15.50;99.90;;;;;;5094652;28;19981;-86
2023/08/01 02:11:46;;;;;;;;;;;15.50;99.90;;;;;;5072206;28;19928;-86
2023/08/01 02:14:12;;;;;;;;;;;15.50;99.90;;;;;;5089319;28;19927;-86
2023/08/01 02:16:38;;;;;;;;;;;15.60;99.90;;;;;;5055697;28;19924;-85
2023/08/01 02:19:03;;;;;;;;;;;15.50;99.90;;;;;;5089145;28;19928;-84
2023/08/01 02:21:29;;;;;;;;;;;15.50;99.90;;;;;;5085583;28;19939;-86
2023/08/01 02:23:55;;;;;;;;;;;15.60;99.90;;;;;;5085345;28;20048;-85
2023/08/01 02:26:22;;;;;;;;;;;15.50;99.90;;;;;;5084242;28;19924;-85
2023/08/01 02:28:47;;;;;;;;;;;15.50;99.90;;;;;;5085100;28;19931;-86
2023/08/01 02:31:13;;;;;;;;;;;15.50;99.90;;;;;;5084303;28;19932;-86
2023/08/01 02:33:39;;;;;;;;;;;15.50;99.90;;;;;;5067303;28;19928;-85
2023/08/01 02:36:04;;;;;;;;;;;15.50;99.90;;;;;;5066284;28;19950;-86
2023/08/01 02:38:30;;;;;;;;;;;15.50;99.90;;;;;;5064717;28;19939;-85
2023/08/01 02:40:55;;;;;;;;;;;15.50;99.90;;;;;;5049767;28;19935;-86
2023/08/01 02:43:21;;;;;;;;;;;15.50;99.90;;;;;;5082410;28;19985;-85
2023/08/01 02:45:46;;;;;;;;;;;15.50;99.90;;;;;;5084264;28;19924;-86
2023/08/01 02:48:12;;;;;;;;;;;15.50;99.90;;;;;;5065790;28;20427;-85
2023/08/01 02:50:37;;;;;;;;;;;15.50;99.90;;;;;;5067543;28;19935;-84
2023/08/01 02:53:04;;;;;;;;;;;15.50;99.90;;;;;;5063528;28;19924;-87
2023/08/01 02:55:29;;;;;;;;;;;15.50;99.90;;;;;;5084908;28;19928;-85
2023/08/01 02:57:55;;;;;;;;;;;15.40;99.90;;;;;;5065643;28;19932;-87
2023/08/01 03:00:21;;;;;;;;;;;15.40;99.90;;;;;;5085041;28;19928;-85
2023/08/01 03:02:46;;;;;;;;;;;15.40;99.90;;;;;;5064863;28;20402;-85
2023/08/01 03:05:12;;;;;;;;;;;15.30;99.90;;;;;;5084063;28;19925;-85
2023/08/01 03:07:37;;;;;;;;;;;15.30;99.90;;;;;;5084251;28;20377;-85
2023/08/01 03:10:03;;;;;;;;;;;15.30;99.90;;;;;;5083271;28;19928;-86
2023/08/01 03:12:28;;;;;;;;;;;15.20;99.90;;;;;;5085047;28;20366;-86
2023/08/01 03:14:54;;;;;;;;;;;15.20;99.90;;;;;;5064659;28;20349;-85
2023/08/01 03:17:20;;;;;;;;;;;15.10;99.90;;;;;;5084657;28;20390;-87
2023/08/01 03:19:45;;;;;;;;;;;15.10;99.90;;;;;;5082931;28;19975;-86
2023/08/01 03:22:11;;;;;;;;;;;15.10;99.90;;;;;;5064997;28;19931;-86
2023/08/01 03:24:36;;;;;;;;;;;15.10;99.90;;;;;;5083266;28;19971;-85
2023/08/01 03:27:03;;;;;;;;;;;15.10;99.90;;;;;;5050290;28;19924;-86
2023/08/01 03:29:28;;;;;;;;;;;15.10;99.90;;;;;;5068148;28;20298;-85
2023/08/01 03:31:54;;;;;;;;;;;15.20;99.90;;;;;;5086497;28;19930;-85
2023/08/01 03:34:19;;;;;;;;;;;15.20;99.90;;;;;;5085907;28;21175;-85
2023/08/01 03:36:45;;;;;;;;;;;15.20;99.90;;;;;;5058278;28;19960;-86
2023/08/01 03:39:11;;;;;;;;;;;15.30;99.90;;;;;;5067699;28;19928;-87
2023/08/01 03:41:38;;;;;;;;;;;15.30;99.90;;;;;;5064689;28;19974;-87
2023/08/01 03:44:03;;;;;;;;;;;15.30;99.90;;;;;;5085792;28;20384;-87
2023/08/01 03:46:29;;;;;;;;;;;15.30;99.90;;;;;;5086439;28;19935;-87
2023/08/01 03:48:55;;;;;;;;;;;15.20;99.90;;;;;;5086262;28;19924;-86
2023/08/01 03:51:20;;;;;;;;;;;15.20;99.90;;;;;;5087355;28;19934;-86
2023/08/01 03:53:46;;;;;;;;;;;15.10;99.90;;;;;;5092341;28;19928;-86
2023/08/01 03:56:12;;;;;;;;;;;15.10;99.90;;;;;;5073753;28;19928;-87
2023/08/01 03:58:37;;;;;;;;;;;15.00;99.90;;;;;;5093161;28;19928;-87
2023/08/01 04:01:03;;;;;;;;;;;14.90;99.90;;;;;;5074503;28;19924;-86
2023/08/01 04:03:28;;;;;;;;;;;14.90;99.90;;;;;;5092451;28;19935;-87
2023/08/01 04:05:54;;;;;;;;;;;14.80;99.90;;;;;;5073747;28;19928;-87
2023/08/01 04:08:20;;;;;;;;;;;14.90;99.90;;;;;;5090866;28;19993;-86
2023/08/01 04:10:45;;;;;;;;;;;14.80;99.90;;;;;;5092576;28;19931;-87
2023/08/01 04:13:11;;;;;;;;;;;14.80;99.90;;;;;;5092448;28;19928;-87
2023/08/01 04:15:37;;;;;;;;;;;14.80;99.90;;;;;;5073647;28;19931;-87
2023/08/01 04:18:02;;;;;;;;;;;14.80;99.90;;;;;;5073380;28;20023;-87
2023/08/01 04:20:28;;;;;;;;;;;14.70;99.90;;;;;;5092112;28;19935;-86
2023/08/01 04:22:53;;;;;;;;;;;14.80;99.90;;;;;;5086495;28;19934;-86
2023/08/01 04:25:19;;;;;;;;;;;14.80;99.90;;;;;;5085439;28;19932;-86
2023/08/01 04:27:44;;;;;;;;;;;14.80;99.90;;;;;;5065324;28;20332;-87
2023/08/01 04:30:10;;;;;;;;;;;14.80;99.90;;;;;;5083909;28;19932;-86
2023/08/01 04:32:36;;;;;;;;;;;14.80;99.90;;;;;;5068310;28;19929;-87
2023/08/01 04:35:01;;;;;;;;;;;14.80;99.90;;;;;;5066023;28;19951;-87
2023/08/01 04:37:27;;;;;;;;;;;14.80;99.90;;;;;;5082951;28;19932;-87
2023/08/01 04:39:52;;;;;;;;;;;14.80;99.90;;;;;;5085664;28;19935;-87
2023/08/01 04:42:18;;;;;;;;;;;14.80;99.90;;;;;;5086779;28;20780;-85
2023/08/01 04:44:43;;;;;;;;;;;14.70;99.90;;;;;;5067410;28;19928;-86
2023/08/01 04:47:09;;;;;;;;;;;14.80;99.90;;;;;;5063517;28;19937;-86
2023/08/01 04:49:35;;;;;;;;;;;14.80;99.90;;;;;;5083074;28;20443;-87
2023/08/01 04:52:00;;;;;;;;;;;14.80;99.90;;;;;;5052389;28;19935;-87
2023/08/01 04:54:26;;;;;;;;;;;14.80;99.90;;;;;;5091429;28;19974;-86
2023/08/01 04:56:52;;;;;;;;;;;14.90;99.90;;;;;;5091495;28;19966;-86
2023/08/01 04:59:17;;;;;;;;;;;15.00;99.90;;;;;;5090341;28;19928;-87
2023/08/01 05:01:43;;;;;;;;;;;15.00;99.90;;;;;;5091566;28;19924;-86
2023/08/01 05:04:08;;;;;;;;;;;15.10;99.90;;;;;;5073661;28;19928;-87
2023/08/01 05:06:34;;;;;;;;;;;15.10;99.90;;;;;;5091372;28;19928;-86
2023/08/01 05:09:00;;;;;;;;;;;15.10;99.90;;;;;;5072119;28;19931;-88
2023/08/01 05:11:25;;;;;;;;;;;15.20;99.90;;;;;;5091299;28;19924;-87
2023/08/01 05:13:51;;;;;;;;;;;15.20;99.90;;;;;;5056696;28;19931;-86
2023/08/01 05:16:16;;;;;;;;;;;15.30;99.90;;;;;;5091435;28;20309;-86
2023/08/01 05:18:42;;;;;;;;;;;15.30;99.90;;;;;;5073456;28;19936;-86
2023/08/01 05:21:07;;;;;;;;;;;15.40;99.90;;;;;;5089949;28;20260;-86
2023/08/01 05:23:33;;;;;;;;;;;15.40;99.90;;;;;;5067903;28;19938;-86
2023/08/01 05:25:59;;;;;;;;;;;15.40;99.90;;;;;;5086363;28;19934;-87
2023/08/01 05:28:24;;;;;;;;;;;15.40;99.90;;;;;;5067277;28;19975;-86
2023/08/01 05:30:50;;;;;;;;;;;15.40;99.90;;;;;;5082064;28;20379;-87
2023/08/01 05:33:15;;;;;;;;;;;15.30;99.90;;;;;;5048845;28;20003;-88
2023/08/01 05:35:41;;;;;;;;;;;15.30;99.90;;;;;;5084143;28;19969;-88
2023/08/01 05:38:06;;;;;;;;;;;15.30;99.90;;;;;;5047441;28;19924;-88
2023/08/01 05:40:32;;;;;;;;;;;15.30;99.90;;;;;;5064516;28;19968;-86
2023/08/01 05:42:58;;;;;;;;;;;15.30;99.90;;;;;;5081229;28;19935;-87
2023/08/01 05:45:23;;;;;;;;;;;15.20;99.90;;;;;;5083222;28;19928;-87
2023/08/01 05:47:49;;;;;;;;;;;15.20;99.90;;;;;;5064634;28;19938;-87
2023/08/01 05:50:14;;;;;;;;;;;15.20;99.90;;;;;;5066079;28;20363;-87
2023/08/01 05:52:40;;;;;;;;;;;15.10;99.90;;;;;;5068555;28;19925;-87
2023/08/01 05:55:06;;;;;;;;;;;15.10;99.90;;;;;;5059051;28;20296;-86
2023/08/01 05:57:31;;;;;;;;;;;15.00;99.90;;;;;;5085326;28;19924;-87
2023/08/01 05:59:57;;;;;;;;;;;15.10;99.90;;;;;;5049469;28;19931;-87
2023/08/01 06:02:22;;;;;;;;;;;15.10;99.90;;;;;;5064678;28;20018;-85
2023/08/01 06:04:48;;;;;;;;;;;15.00;99.90;;;;;;5072004;28;19928;-87
2023/08/01 06:07:13;;;;;;;;;;;15.00;99.90;;;;;;5084968;28;19928;-87
2023/08/01 06:09:39;;;;;;;;;;;15.00;99.90;;;;;;5049841;28;19935;-86
2023/08/01 06:12:05;;;;;;;;;;;15.00;99.90;;;;;;5065220;28;19928;-87
2023/08/01 06:14:30;;;;;;;;;;;15.10;99.90;;;;;;5083721;28;19931;-87
2023/08/01 06:16:56;;;;;;;;;;;15.10;99.90;;;;;;5084547;28;19924;-87
2023/08/01 06:19:21;;;;;;;;;;;15.20;99.90;;;;;;5086754;28;19924;-86
2023/08/01 06:21:47;;;;;;;;;;;15.30;99.90;;;;;;5061775;28;19932;-87
2023/08/01 06:24:13;;;;;;;;;;;15.30;99.90;;;;;;5084934;28;19924;-87
2023/08/01 06:26:38;;;;;;;;;;;15.40;99.90;;;;;;5065295;28;19931;-86
2023/08/01 06:29:04;;;;;;;;;;;15.50;99.90;;;;;;5066646;28;19978;-88
2023/08/01 06:31:30;;;;;;;;;;;15.60;99.90;;;;;;5067072;28;19928;-87
2023/08/01 06:33:55;;;;;;;;;;;15.70;99.90;;;;;;5048655;28;19928;-87
2023/08/01 06:36:21;;;;;;;;;;;15.80;99.90;;;;;;5082654;28;20428;-87
2023/08/01 06:38:47;;;;;;;;;;;15.90;99.90;;;;;;5059329;28;19939;-86
2023/08/01 06:41:12;;;;;;;;;;;15.90;99.90;;;;;;5070260;28;20007;-88
2023/08/01 06:43:38;;;;;;;;;;;16.00;99.90;;;;;;5071786;28;19928;-86
2023/08/01 06:46:04;;;;;;;;;;;16.00;99.90;;;;;;5082337;28;19924;-87
2023/08/01 06:48:30;;;;;;;;;;;16.10;99.90;;;;;;5080907;28;19981;-87
2023/08/01 06:50:55;;;;;;;;;;;16.20;99.90;;;;;;5083617;28;19924;-87
2023/08/01 06:53:21;;;;;;;;;;;16.30;99.90;;;;;;5066633;28;19932;-87
2023/08/01 06:55:47;;;;;;;;;;;16.30;99.90;;;;;;5083254;28;19976;-86
2023/08/01 06:58:12;;;;;;;;;;;16.30;99.90;;;;;;5084515;28;20050;-87
2023/08/01 07:00:38;;;;;;;;;;;16.30;99.90;;;;;;5068058;28;19924;-87
2023/08/01 07:03:03;;;;;;;;;;;16.20;99.90;;;;;;5068873;28;19924;-87
2023/08/01 07:05:29;;;;;;;;;;;16.10;99.90;;;;;;5081492;28;19933;-87
2023/08/01 07:07:55;;;;;;;;;;;16.20;99.90;;;;;;5083787;28;20374;-86
2023/08/01 07:10:20;;;;;;;;;;;16.20;99.90;;;;;;5085142;28;19988;-86
2023/08/01 07:12:46;;;;;;;;;;;16.30;99.90;;;;;;5086084;28;19935;-87
2023/08/01 07:15:11;;;;;;;;;;;16.40;99.90;;;;;;5083556;28;20049;-86
2023/08/01 07:17:37;;;;;;;;;;;16.50;99.90;;;;;;5067807;28;20382;-87
2023/08/01 07:20:03;;;;;;;;;;;16.80;99.90;;;;;;5084794;28;20069;-87
2023/08/01 07:22:28;;;;;;;;;;;17.30;99.90;;;;;;5084946;28;20397;-85
2023/08/01 07:24:54;;;;;;;;;;;17.80;99.90;;;;;;5065319;28;19982;-87
2023/08/01 07:27:20;;;;;;;;;;;18.00;99.90;;;;;;5082971;28;19932;-87
2023/08/01 07:29:46;;;;;;;;;;;18.10;99.90;;;;;;5064336;28;19928;-88
2023/08/01 07:32:11;;;;;;;;;;;18.10;99.90;;;;;;5084870;28;20325;-87
2023/08/01 07:34:37;;;;;;;;;;;18.10;99.90;;;;;;5065874;28;20014;-87
2023/08/01 07:37:02;;;;;;;;;;;18.00;99.90;;;;;;5083248;28;20379;-86
2023/08/01 07:39:28;;;;;;;;;;;18.00;99.90;;;;;;5086036;28;20011;-85
2023/08/01 07:41:55;;;;;;;;;;;18.00;99.90;;;;;;5086704;28;19924;-85
2023/08/01 07:44:20;;;;;;;;;;;17.90;99.90;;;;;;5079891;28;19940;-86
2023/08/01 07:46:46;;;;;;;;;;;17.80;99.90;;;;;;5081964;28;19924;-85
2023/08/01 07:49:11;;;;;;;;;;;17.70;99.90;;;;;;5067549;28;20029;-85
2023/08/01 07:51:37;;;;;;;;;;;17.60;99.90;;;;;;5088649;28;19924;-84
2023/08/01 07:54:03;;;;;;;;;;;17.40;99.90;;;;;;5058676;28;20031;-84
2023/08/01 07:56:28;;;;;;;;;;;17.20;99.90;;;;;;5074638;28;19928;-86
2023/08/01 07:58:54;;;;;;;;;;;17.10;99.90;;;;;;5096385;28;19928;-84
2023/08/01 08:01:19;;;;;;;;;;;16.90;99.90;;;;;;5095069;28;20434;-87
2023/08/01 08:03:45;;;;;;;;;;;16.80;99.90;;;;;;5087388;28;20379;-85
2023/08/01 08:06:10;;;;;;;;;;;16.70;99.90;;;;;;5086970;28;19950;-85
2023/08/01 08:08:39;;;;;;;;;;;16.60;99.90;;;;;;5066119;28;19963;-86
2023/08/01 08:11:04;;;;;;;;;;;16.60;99.90;;;;;;5067440;28;20393;-85
2023/08/01 08:13:30;;;;;;;;;;;16.60;99.90;;;;;;5082559;28;19984;-85
2023/08/01 08:15:59;;;;;;;;;;;16.50;99.90;;;;;;5081295;28;19931;-88
2023/08/01 08:18:25;;;;;;;;;;;16.40;99.90;;;;;;5088972;28;19928;-84
2023/08/01 08:20:50;;;;;;;;;;;16.40;99.90;;;;;;5088824;28;20379;-86
2023/08/01 08:23:16;;;;;;;;;;;16.30;99.90;;;;;;5090418;28;20061;-85
2023/08/01 08:25:44;;;;;;;;;;;16.30;99.90;;;;;;5067309;28;19930;-86
2023/08/01 08:28:11;;;;;;;;;;;16.20;99.90;;;;;;5062765;28;20306;-86
2023/08/01 08:30:36;;;;;;;;;;;16.20;99.90;;;;;;5083325;28;20265;-85
2023/08/01 08:33:04;;;;;;;;;;;16.20;99.90;;;;;;5084820;28;20363;-85
2023/08/01 08:35:34;;;;;;;;;;;16.20;99.90;;;;;;5071306;28;20360;-85
2023/08/01 08:38:01;;;;;;;;;;;16.30;99.90;;;;;;5078632;28;20510;-93
2023/08/01 08:40:27;;;;;;;;;;;16.40;99.90;;;;;;5065387;28;20351;-85
2023/08/01 08:42:53;;;;;;;;;;;16.40;99.90;;;;;;5084958;28;19967;-85
2023/08/01 08:45:20;;;;;;;;;;;16.40;99.90;;;;;;5089179;28;19935;-85
2023/08/01 08:47:48;;;;;;;;;;;16.50;99.90;;;;;;5085981;28;19935;-85
2023/08/01 08:50:14;;;;;;;;;;;16.50;99.90;;;;;;5084052;28;19931;-86
2023/08/01 08:52:40;;;;;;;;;;;16.60;99.90;;;;;;5085635;28;19928;-85
2023/08/01 08:55:06;;;;;;;;;;;16.70;99.90;;;;;;5065421;28;19924;-85
2023/08/01 08:57:33;;;;;;;;;;;16.70;99.90;;;;;;5081884;28;19928;-85
2023/08/01 08:59:59;;;;;;;;;;;16.70;99.90;;;;;;5083980;28;19968;-87
2023/08/01 09:02:25;;;;;;;;;;;16.80;99.90;;;;;;5083150;28;19964;-87
2023/08/01 09:04:50;;;;;;;;;;;16.80;99.90;;;;;;5067169;28;20477;-86
2023/08/01 09:07:19;;;;;;;;;;;16.70;99.90;;;;;;5084209;28;20286;-85
2023/08/01 09:09:44;;;;;;;;;;;16.50;99.90;;;;;;5084847;28;19924;-86
2023/08/01 09:12:10;;;;;;;;;;;16.40;99.90;;;;;;5063784;28;19935;-85
2023/08/01 09:14:36;;;;;;;;;;;16.30;99.90;;;;;;5084988;28;19951;-85
2023/08/01 09:17:08;;;;;;;;;;;16.20;99.90;;;;;;5082317;28;19986;-92
2023/08/01 09:19:33;;;;;;;;;;;16.10;99.90;;;;;;5048148;28;19928;-88
2023/08/01 09:21:59;;;;;;;;;;;16.00;99.90;;;;;;5084925;28;19928;-87
2023/08/01 09:24:24;;;;;;;;;;;16.00;99.90;;;;;;5084036;28;19934;-87
2023/08/01 09:26:50;;;;;;;;;;;15.90;99.90;;;;;;5068114;28;20015;-86
2023/08/01 09:29:16;;;;;;;;;;;15.80;99.90;;;;;;5085726;28;20339;-85
2023/08/01 09:31:43;;;;;;;;;;;15.80;99.90;;;;;;5083798;28;19930;-87
2023/08/01 09:34:19;;;;;;;;;;;15.70;99.90;;;;;;5065352;28;19973;-86
2023/08/01 09:36:44;;;;;;;;;;;15.70;99.90;;;;;;5067083;28;19963;-86
2023/08/01 09:39:15;;;;;;;;;;;15.70;99.90;;;;;;5048941;28;19966;-88
2023/08/01 09:41:41;;;;;;;;;;;15.60;99.90;;;;;;5065917;28;20289;-87
2023/08/01 09:44:10;;;;;;;;;;;15.60;99.90;;;;;;5084944;28;20010;-86
2023/08/01 09:46:35;;;;;;;;;;;15.60;99.90;;;;;;5084622;28;19928;-89
2023/08/01 09:49:08;;;;;;;;;;;15.70;99.90;;;;;;5063619;28;19925;-88
2023/08/01 09:51:34;;;;;;;;;;;15.70;99.90;;;;;;5052334;28;20392;-87
2023/08/01 09:53:59;;;;;;;;;;;15.70;99.90;;;;;;5088967;28;19932;-88
2023/08/01 09:56:26;;;;;;;;;;;15.80;99.90;;;;;;5084585;28;20385;-86
2023/08/01 09:58:52;;;;;;;;;;;15.90;99.90;;;;;;5088699;28;19928;-87
2023/08/01 10:01:19;;;;;;;;;;;15.90;99.90;;;;;;5090240;28;19930;-86
2023/08/01 10:03:46;;;;;;;;;;;16.00;99.90;;;;;;5089173;28;20019;-87
2023/08/01 10:06:14;;;;;;;;;;;16.00;99.90;;;;;;5091163;28;19949;-88
2023/08/01 10:08:39;;;;;;;;;;;16.10;99.90;;;;;;5090477;28;19928;-87
2023/08/01 10:11:05;;;;;;;;;;;16.10;99.90;;;;;;5090948;28;19931;-86
2023/08/01 10:13:32;;;;;;;;;;;16.20;99.90;;;;;;5071961;28;19931;-86
2023/08/01 10:15:58;;;;;;;;;;;16.30;99.90;;;;;;5072756;28;20306;-87
2023/08/01 10:18:24;;;;;;;;;;;16.20;99.90;;;;;;5072830;28;19935;-86
2023/08/01 10:20:50;;;;;;;;;;;16.30;99.90;;;;;;5072738;28;19959;-85
2023/08/01 10:23:15;;;;;;;;;;;16.30;99.90;;;;;;5082415;28;20378;-86
2023/08/01 10:25:41;;;;;;;;;;;16.50;99.90;;;;;;5085349;28;19958;-90
2023/08/01 10:28:07;;;;;;;;;;;16.60;99.90;;;;;;5074571;28;19924;-85
2023/08/01 10:30:32;;;;;;;;;;;16.90;99.90;;;;;;5064408;28;20325;-85
2023/08/01 10:32:59;;;;;;;;;;;17.20;99.90;;;;;;5085210;28;19924;-87
2023/08/01 10:35:35;;;;;;;;;;;17.70;99.90;;;;;;5066106;28;19939;-86
2023/08/01 10:38:07;;;;;;;;;;;18.20;99.90;;;;;;5083629;28;20259;-86
2023/08/01 10:40:33;;;;;;;;;;;18.60;99.90;;;;;;5084403;28;20464;-86
2023/08/01 10:42:59;;;;;;;;;;;18.70;99.90;;;;;;5086626;28;19924;-85
2023/08/01 10:45:27;;;;;;;;;;;18.90;99.90;;;;;;5066936;28;19947;-85
2023/08/01 10:47:52;;;;;;;;;;;19.10;99.90;;;;;;5085184;28;20355;-85
2023/08/01 10:50:18;;;;;;;;;;;19.30;99.90;;;;;;5072177;28;19964;-84
2023/08/01 10:52:43;;;;;;;;;;;19.30;99.90;;;;;;5094164;28;19993;-85
2023/08/01 10:55:10;;;;;;;;;;;19.10;99.90;;;;;;5089008;28;20015;-85
2023/08/01 10:57:36;;;;;;;;;;;19.00;99.90;;;;;;5092680;28;19940;-84
2023/08/01 11:00:09;;;;;;;;;;;19.00;99.90;;;;;;5093430;28;19927;-85
2023/08/01 11:02:35;;;;;;;;;;;18.90;99.90;;;;;;5088600;28;19928;-91
2023/08/01 11:05:02;;;;;;;;;;;18.60;99.90;;;;;;5072409;28;19973;-84
2023/08/01 11:07:28;;;;;;;;;;;18.30;99.90;;;;;;5055665;28;19928;-84
2023/08/01 11:10:02;;;;;;;;;;;18.00;99.90;;;;;;5093956;28;20435;-86
2023/08/01 11:12:30;;;;;;;;;;;17.80;99.90;;;;;;5075539;28;19977;-90
2023/08/01 11:15:03;;;;;;;;;;;17.60;99.90;;;;;;5058730;28;19950;-85
2023/08/01 11:17:29;;;;;;;;;;;17.50;99.90;;;;;;5080406;28;20034;-85
2023/08/01 11:20:02;;;;;;;;;;;17.40;99.90;;;;;;5092029;28;19924;-85
2023/08/01 11:22:27;;;;;;;;;;;17.40;99.90;;;;;;5075690;28;20348;-84
2023/08/01 11:24:53;;;;;;;;;;;17.60;99.90;;;;;;5093836;28;19924;-85
2023/08/01 11:27:19;;;;;;;;;;;17.80;99.90;;;;;;5087686;28;19928;-86
2023/08/01 11:29:44;;;;;;;;;;;18.00;99.90;;;;;;5070427;28;19928;-87
2023/08/01 11:32:10;;;;;;;;;;;18.10;99.90;;;;;;5093535;28;19936;-84
2023/08/01 11:34:40;;;;;;;;;;;18.10;99.90;;;;;;5093585;28;20516;-87
2023/08/01 11:37:06;;;;;;;;;;;17.90;99.90;;;;;;5092353;28;19931;-87
2023/08/01 11:39:32;;;;;;;;;;;17.80;99.90;;;;;;5092330;28;19925;-86
2023/08/01 11:41:58;;;;;;;;;;;17.90;99.90;;;;;;5058836;28;19924;-85
2023/08/01 11:44:24;;;;;;;;;;;18.10;99.90;;;;;;5092860;28;19977;-87
2023/08/01 11:46:49;;;;;;;;;;;18.30;99.90;;;;;;5093269;28;20079;-86
2023/08/01 11:49:15;;;;;;;;;;;18.40;99.90;;;;;;5093016;28;20320;-87
2023/08/01 11:51:44;;;;;;;;;;;18.60;99.90;;;;;;5090480;28;19924;-87
2023/08/01 11:54:11;;;;;;;;;;;18.80;99.90;;;;;;5074997;28;19935;-87
2023/08/01 11:56:41;;;;;;;;;;;18.90;99.90;;;;;;5092996;28;20019;-87
2023/08/01 11:59:09;;;;;;;;;;;18.80;99.90;;;;;;5093125;28;20385;-86
2023/08/01 12:01:39;;;;;;;;;;;18.70;99.90;;;;;;5091022;28;20379;-87
2023/08/01 12:04:04;;;;;;;;;;;18.50;99.90;;;;;;5092938;28;19971;-86
2023/08/01 12:06:31;;;;;;;;;;;18.30;99.90;;;;;;5074761;28;20036;-87
2023/08/01 12:09:05;;;;;;;;;;;18.20;99.90;;;;;;5092251;28;19932;-88
2023/08/01 12:11:30;;;;;;;;;;;18.00;99.90;;;;;;5073225;28;19935;-88
2023/08/01 12:14:11;;;;;;;;;;;18.00;99.90;;;;;;5074499;28;19924;-86
2023/08/01 12:16:38;;;;;;;;;;;18.10;99.90;;;;;;5074845;28;19981;-87
2023/08/01 12:19:03;;;;;;;;;;;18.30;99.90;;;;;;5074559;28;19930;-86
2023/08/01 12:21:29;;;;;;;;;;;18.70;99.90;;;;;;5091357;28;20071;-87
2023/08/01 12:23:55;;;;;;;;;;;19.10;99.90;;;;;;5091613;28;20283;-87
2023/08/01 12:26:20;;;;;;;;;;;19.40;99.90;;;;;;5074675;28;19935;-86
2023/08/01 12:28:47;;;;;;;;;;;19.70;99.90;;;;;;5092312;28;20036;-86
2023/08/01 12:31:15;;;;;;;;;;;19.60;99.90;;;;;;5092320;28;19924;-86
2023/08/01 12:33:41;;;;;;;;;;;19.50;99.90;;;;;;5073315;28;20378;-86
2023/08/01 12:36:06;;;;;;;;;;;19.30;99.90;;;;;;5091763;28;20010;-86
2023/08/01 12:38:32;;;;;;;;;;;19.00;99.90;;;;;;5073933;28;20432;-87
2023/08/01 12:40:57;;;;;;;;;;;18.90;99.90;;;;;;5073885;28;20344;-86
2023/08/01 12:43:23;;;;;;;;;;;18.90;99.90;;;;;;5090715;28;19931;-87
2023/08/01 12:45:48;;;;;;;;;;;19.20;99.90;;;;;;5092051;28;19924;-87
2023/08/01 12:48:14;;;;;;;;;;;19.60;99.90;;;;;;5091453;28;19934;-86
2023/08/01 12:50:43;;;;;;;;;;;20.10;99.90;;;;;;5074422;28;19928;-86
2023/08/01 12:53:10;;;;;;;;;;;20.50;99.90;;;;;;5090333;28;19924;-86
2023/08/01 12:55:36;;;;;;;;;;;20.70;99.90;;;;;;5072760;28;20436;-86
2023/08/01 12:58:01;;;;;;;;;;;20.60;99.90;;;;;;5092412;28;19924;-87
2023/08/01 13:00:28;;;;;;;;;;;20.30;99.90;;;;;;5093510;28;19977;-88
2023/08/01 13:02:53;;;;;;;;;;;20.10;99.90;;;;;;5092202;28;20298;-85
2023/08/01 13:05:20;;;;;;;;;;;19.90;99.90;;;;;;5070958;28;19935;-87
2023/08/01 13:07:45;;;;;;;;;;;19.60;99.90;;;;;;5090055;28;19928;-85
2023/08/01 13:10:11;;;;;;;;;;;19.60;99.90;;;;;;5073765;28;19924;-86
2023/08/01 13:12:36;;;;;;;;;;;19.80;99.90;;;;;;5091896;28;20020;-85
2023/08/01 13:15:02;;;;;;;;;;;19.90;99.90;;;;;;5088885;28;19947;-87
2023/08/01 13:17:28;;;;;;;;;;;19.90;99.90;;;;;;5091559;28;19977;-87
2023/08/01 13:19:53;;;;;;;;;;;19.70;99.90;;;;;;5089573;28;19924;-85
2023/08/01 13:22:19;;;;;;;;;;;19.50;99.90;;;;;;5084043;28;19928;-85
2023/08/01 13:24:45;;;;;;;;;;;19.30;99.90;;;;;;5086877;28;19931;-83
2023/08/01 13:27:11;;;;;;;;;;;19.20;99.90;;;;;;5091261;28;19951;-83
2023/08/01 13:29:36;;;;;;;;;;;19.20;99.90;;;;;;5091522;28;19935;-84
2023/08/01 13:32:02;;;;;;;;;;;19.40;99.90;;;;;;5089546;28;19924;-84
2023/08/01 13:34:28;;;;;;;;;;;19.40;99.90;;;;;;5087741;28;20016;-86
2023/08/01 13:36:53;;;;;;;;;;;19.40;99.90;;;;;;5091164;28;19931;-86
2023/08/01 13:39:19;;;;;;;;;;;19.40;99.90;;;;;;5090654;28;19924;-86
2023/08/01 13:41:44;;;;;;;;;;;19.30;99.90;;;;;;5071960;28;20794;-87
2023/08/01 13:44:10;;;;;;;;;;;19.30;99.90;;;;;;5072871;28;19931;-87
2023/08/01 13:46:35;;;;;;;;;;;19.20;99.90;;;;;;5073550;28;20045;-87
2023/08/01 13:49:01;;;;;;;;;;;18.90;99.90;;;;;;5090775;28;19924;-85
2023/08/01 13:51:27;;;;;;;;;;;18.60;99.90;;;;;;5085767;28;19928;-87
2023/08/01 13:53:52;;;;;;;;;;;18.40;99.90;;;;;;5071420;28;20418;-86
2023/08/01 13:56:18;;;;;;;;;;;18.10;99.90;;;;;;5091118;28;19928;-87
2023/08/01 13:58:43;;;;;;;;;;;17.90;99.90;;;;;;5092616;28;19924;-87
2023/08/01 14:01:09;;;;;;;;;;;17.80;99.90;;;;;;5077129;28;20381;-88
2023/08/01 14:03:36;;;;;;;;;;;17.70;99.90;;;;;;5091619;28;19963;-85
2023/08/01 14:06:09;;;;;;;;;;;17.70;99.90;;;;;;5076153;28;20955;-87
2023/08/01 14:08:35;;;;;;;;;;;17.80;99.90;;;;;;5097231;28;19930;-88